createdAt,value
2018-08-30T00:03:44.005Z,48.60
2018-08-30T00:08:34.937Z,48.50
2018-08-30T00:13:25.847Z,48.60
2018-08-30T00:18:16.868Z,48.70
2018-08-30T00:23:07.886Z,48.80
2018-08-30T00:27:59.428Z,48.60
2018-08-30T00:32:50.455Z,48.60
2018-08-30T00:37:42.114Z,48.70
2018-08-30T00:42:33.013Z,48.70
2018-08-30T00:47:23.925Z,48.60
2018-08-30T00:52:15.574Z,48.80
2018-08-30T00:57:06.534Z,48.60
2018-08-30T01:01:57.433Z,48.70
2018-08-30T01:06:48.341Z,48.70
2018-08-30T01:11:39.354Z,48.70
2018-08-30T01:16:30.260Z,49.40
2018-08-30T01:21:21.188Z,48.70
2018-08-30T01:26:12.883Z,48.70
2018-08-30T01:31:04.547Z,48.80
2018-08-30T01:35:55.440Z,48.80
2018-08-30T01:40:47.109Z,48.90
2018-08-30T01:45:38.026Z,48.90
2018-08-30T01:50:28.934Z,49.00
2018-08-30T01:55:19.848Z,49.00
2018-08-30T02:00:11.482Z,49.00
2018-08-30T02:05:02.409Z,49.00
2018-08-30T02:09:53.333Z,49.00
2018-08-30T02:14:44.274Z,49.00
2018-08-30T02:19:35.181Z,49.00
2018-08-30T02:24:26.075Z,49.20
2018-08-30T02:29:17.002Z,49.20
2018-08-30T02:34:07.908Z,49.10
2018-08-30T02:38:59.002Z,49.20
2018-08-30T02:43:49.904Z,49.40
2018-08-30T02:48:41.628Z,49.60
2018-08-30T02:53:33.283Z,49.50
2018-08-30T02:58:24.212Z,49.50
2018-08-30T03:03:15.113Z,49.50
2018-08-30T03:08:06.006Z,49.60
2018-08-30T03:12:56.952Z,49.60
2018-08-30T03:17:48.663Z,49.70
2018-08-30T03:22:39.580Z,49.70
2018-08-30T03:27:30.513Z,49.80
2018-08-30T03:32:21.532Z,50.00
2018-08-30T03:37:12.438Z,49.90
2018-08-30T03:42:03.374Z,49.90
2018-08-30T03:46:54.336Z,49.80
2018-08-30T03:51:45.202Z,49.90
2018-08-30T03:56:36.205Z,50.00
2018-08-30T04:01:27.861Z,50.00
2018-08-30T04:06:18.796Z,50.00
2018-08-30T04:11:10.447Z,50.00
2018-08-30T04:16:01.352Z,50.00
2018-08-30T04:20:52.278Z,50.00
2018-08-30T04:25:43.921Z,50.10
2018-08-30T04:30:34.866Z,49.90
2018-08-30T04:35:26.618Z,50.10
2018-08-30T04:40:17.628Z,50.10
2018-08-30T04:45:09.295Z,50.20
2018-08-30T04:50:00.238Z,50.10
2018-08-30T04:54:51.846Z,50.50
2018-08-30T04:59:42.753Z,50.50
2018-08-30T05:04:33.663Z,51.10
2018-08-30T05:09:26.074Z,51.30
2018-08-30T05:14:17.721Z,51.20
2018-08-30T05:19:08.633Z,51.10
2018-08-30T05:23:59.591Z,51.10
2018-08-30T05:28:50.484Z,51.20
2018-08-30T05:33:41.409Z,51.90
2018-08-30T05:38:33.062Z,51.40
2018-08-30T05:43:23.958Z,51.40
2018-08-30T05:48:14.864Z,51.40
2018-08-30T05:53:05.799Z,51.60
2018-08-30T05:57:56.727Z,51.50
2018-08-30T06:02:48.387Z,51.70
2018-08-30T06:07:39.329Z,51.60
2018-08-30T06:12:31.011Z,51.80
2018-08-30T06:17:22.670Z,51.80
2018-08-30T06:22:13.577Z,51.70
2018-08-30T06:27:04.494Z,52.00
2018-08-30T06:31:55.419Z,52.20
2018-08-30T06:36:46.335Z,53.00
2018-08-30T06:41:37.298Z,53.50
2018-08-30T06:46:28.193Z,54.00
2018-08-30T06:51:19.110Z,54.50
2018-08-30T06:56:10.060Z,54.30
2018-08-30T07:01:01.063Z,54.60
2018-08-30T07:05:52.016Z,54.90
2018-08-30T07:10:43.654Z,55.20
2018-08-30T07:15:34.557Z,55.20
2018-08-30T07:20:25.469Z,54.80
2018-08-30T07:25:16.394Z,54.50
2018-08-30T07:30:07.323Z,54.80
2018-08-30T07:34:58.400Z,55.40
2018-08-30T07:39:49.146Z,55.60
2018-08-30T07:44:40.205Z,55.60
2018-08-30T07:49:31.030Z,56.90
2018-08-30T07:54:22.016Z,56.80
2018-08-30T07:59:14.422Z,56.90
2018-08-30T08:04:05.333Z,56.80
2018-08-30T08:08:56.263Z,56.40
2018-08-30T08:13:47.172Z,56.10
2018-08-30T08:18:38.833Z,56.80
2018-08-30T08:23:29.771Z,56.70
2018-08-30T08:28:20.693Z,57.10
2018-08-30T08:33:11.630Z,57.00
2018-08-30T08:38:02.521Z,57.40
2018-08-30T08:42:53.446Z,58.80
2018-08-30T08:47:44.393Z,58.60
2018-08-30T08:52:35.246Z,59.40
2018-08-30T08:57:26.191Z,59.20
2018-08-30T09:02:17.106Z,59.30
2018-08-30T09:07:08.023Z,59.30
2018-08-30T09:11:59.260Z,59.10
2018-08-30T09:16:50.157Z,59.10
2018-08-30T09:21:41.091Z,59.30
2018-08-30T09:26:32.025Z,58.90
2018-08-30T09:31:23.175Z,59.10
2018-08-30T09:36:14.098Z,58.30
2018-08-30T09:41:05.001Z,58.80
2018-08-30T09:45:56.661Z,58.70
2018-08-30T09:50:47.578Z,58.60
2018-08-30T09:55:38.539Z,58.90
2018-08-30T10:05:53.080Z,60.00
2018-08-30T10:10:44.026Z,59.90
2018-08-30T10:15:34.970Z,60.60
2018-08-30T10:20:25.942Z,60.10
2018-08-30T10:25:16.892Z,60.60
2018-08-30T10:30:07.766Z,60.10
2018-08-30T10:34:58.685Z,60.50
2018-08-30T10:39:49.581Z,60.80
2018-08-30T10:44:40.481Z,60.70
2018-08-30T10:49:31.419Z,60.20
2018-08-30T10:54:22.324Z,60.10
2018-08-30T10:59:13.220Z,60.00
2018-08-30T11:04:04.237Z,59.70
2018-08-30T11:08:55.897Z,60.10
2018-08-30T11:13:46.780Z,60.00
2018-08-30T11:18:38.486Z,61.10
2018-08-30T11:23:29.395Z,61.10
2018-08-30T11:28:20.347Z,61.30
2018-08-30T11:33:11.262Z,61.00
2018-08-30T11:38:02.908Z,62.20
2018-08-30T11:42:53.825Z,61.50
2018-08-30T11:47:45.519Z,61.40
2018-08-30T11:52:36.490Z,61.40
2018-08-30T11:57:27.378Z,61.70
2018-08-30T12:02:18.286Z,61.80
2018-08-30T12:07:09.216Z,62.00
2018-08-30T12:12:00.126Z,61.70
2018-08-30T12:16:51.027Z,61.90
2018-08-30T12:21:41.934Z,61.70
2018-08-30T12:26:32.896Z,61.60
2018-08-30T12:31:23.885Z,61.60
2018-08-30T12:36:15.502Z,61.90
2018-08-30T12:41:06.446Z,61.80
2018-08-30T12:45:57.349Z,62.10
2018-08-30T12:50:48.454Z,61.80
2018-08-30T12:55:39.341Z,61.90
2018-08-30T13:00:30.362Z,61.40
2018-08-30T13:05:21.247Z,61.40
2018-08-30T13:10:12.284Z,61.40
2018-08-30T13:15:03.385Z,61.20
2018-08-30T13:19:54.206Z,62.10
2018-08-30T13:24:45.174Z,61.40
2018-08-30T13:29:35.987Z,61.20
2018-08-30T13:34:27.089Z,61.20
2018-08-30T13:39:18.732Z,61.10
2018-08-30T13:44:09.983Z,61.10
2018-08-30T13:49:00.572Z,60.90
2018-08-30T13:53:52.214Z,60.70
2018-08-30T13:58:43.430Z,60.60
2018-08-30T14:03:34.182Z,60.60
2018-08-30T14:08:25.128Z,60.50
2018-08-30T14:13:15.895Z,60.50
2018-08-30T14:18:07.344Z,60.70
2018-08-30T14:22:58.320Z,60.70
2018-08-30T14:27:49.197Z,60.50
2018-08-30T14:32:40.139Z,60.50
2018-08-30T14:37:31.073Z,60.50
2018-08-30T14:42:22.075Z,60.40
2018-08-30T14:47:13.145Z,60.30
2018-08-30T14:52:04.617Z,60.10
2018-08-30T14:56:55.569Z,60.10
2018-08-30T15:01:46.494Z,60.00
2018-08-30T15:06:37.492Z,60.00
2018-08-30T15:11:28.338Z,60.00
2018-08-30T15:16:20.016Z,59.80
2018-08-30T15:21:10.889Z,59.80
2018-08-30T15:26:02.687Z,60.20
2018-08-30T15:30:53.504Z,60.10
2018-08-30T15:35:44.412Z,60.60
2018-08-30T15:40:36.133Z,61.40
2018-08-30T15:45:27.734Z,61.50
2018-08-30T15:50:18.650Z,61.50
2018-08-30T15:55:09.692Z,61.70
2018-08-30T16:00:01.330Z,61.90
2018-08-30T16:04:52.230Z,61.90
2018-08-30T16:09:43.151Z,61.90
2018-08-30T16:14:34.808Z,61.90
2018-08-30T16:19:25.758Z,61.90
2018-08-30T16:24:16.815Z,61.90
2018-08-30T16:29:07.946Z,62.30
2018-08-30T16:33:59.598Z,62.10
2018-08-30T16:38:50.578Z,62.10
2018-08-30T16:43:41.538Z,62.20
2018-08-30T16:48:33.211Z,62.50
2018-08-30T16:53:24.249Z,62.40
2018-08-30T16:58:15.107Z,62.60
2018-08-30T17:03:06.154Z,62.90
2018-08-30T17:07:57.068Z,63.10
2018-08-30T17:12:48.739Z,63.20
2018-08-30T17:17:41.214Z,63.10
2018-08-30T17:22:32.117Z,63.20
2018-08-30T17:27:23.116Z,63.00
2018-08-30T17:32:14.071Z,62.60
2018-08-30T17:37:05.021Z,63.20
2018-08-30T17:41:55.903Z,63.50
2018-08-30T17:46:46.805Z,63.00
2018-08-30T17:51:37.876Z,62.90
2018-08-30T17:56:28.886Z,63.40
2018-08-30T18:01:19.820Z,63.30
2018-08-30T18:06:10.799Z,63.50
2018-08-30T18:11:01.695Z,63.30
2018-08-30T18:15:52.622Z,63.20
2018-08-30T18:20:43.575Z,63.60
2018-08-30T18:25:35.282Z,63.40
2018-08-30T18:30:26.286Z,63.30
2018-08-30T18:35:17.216Z,63.30
2018-08-30T18:40:08.941Z,64.00
2018-08-30T18:44:59.884Z,63.30
2018-08-30T18:49:51.518Z,63.20
2018-08-30T18:54:42.456Z,63.10
2018-08-30T18:59:33.429Z,63.30
2018-08-30T19:04:24.361Z,63.30
2018-08-30T19:09:15.271Z,63.40
2018-08-30T19:14:06.186Z,63.40
2018-08-30T19:24:14.897Z,63.50
2018-08-30T19:29:06.545Z,63.80
2018-08-30T19:33:58.207Z,64.00
2018-08-30T19:38:49.117Z,63.90
2018-08-30T19:43:40.851Z,64.30
2018-08-30T19:48:31.792Z,64.30
2018-08-30T19:53:23.485Z,64.20
2018-08-30T19:58:14.487Z,64.20
2018-08-30T20:03:06.191Z,63.80
2018-08-30T20:07:57.123Z,63.80
2018-08-30T20:12:48.039Z,63.90
2018-08-30T20:17:38.977Z,64.70
2018-08-30T20:22:29.926Z,64.10
2018-08-30T20:27:21.564Z,63.70
2018-08-30T20:32:12.563Z,63.70
2018-08-30T20:37:03.466Z,63.70
2018-08-30T20:41:54.441Z,63.80
2018-08-30T20:46:45.443Z,63.90
2018-08-30T20:51:36.454Z,63.80
2018-08-30T20:56:28.171Z,64.00
2018-08-30T21:01:19.149Z,63.90
2018-08-30T21:06:10.110Z,64.10
2018-08-30T21:11:01.065Z,64.00
2018-08-30T21:15:52.140Z,64.00
2018-08-30T21:20:43.116Z,64.10
2018-08-30T21:25:34.288Z,64.20
2018-08-30T21:30:25.201Z,63.90
2018-08-30T21:35:16.105Z,63.90
2018-08-30T21:40:08.174Z,64.20
2018-08-30T21:44:59.108Z,64.20
2018-08-30T21:49:50.090Z,64.00
2018-08-30T21:54:41.003Z,63.90
2018-08-30T21:59:32.661Z,64.10
2018-08-30T22:04:23.685Z,64.00
2018-08-30T22:09:14.904Z,64.00
2018-08-30T22:14:06.147Z,63.70
2018-08-30T22:18:57.134Z,63.50
2018-08-30T22:23:48.124Z,63.50
2018-08-30T22:28:39.125Z,63.40
2018-08-30T22:33:30.838Z,63.00
2018-08-30T22:38:22.861Z,63.00
2018-08-30T22:43:13.777Z,63.00
2018-08-30T22:48:05.101Z,62.80
2018-08-30T22:52:56.028Z,62.80
2018-08-30T22:57:48.191Z,62.90
2018-08-30T23:02:39.830Z,62.80
2018-08-30T23:07:30.778Z,62.80
2018-08-30T23:12:21.698Z,62.70
2018-08-30T23:17:13.354Z,62.60
2018-08-30T23:22:04.306Z,62.60
2018-08-30T23:26:56.296Z,62.50
2018-08-30T23:31:47.949Z,62.60
2018-08-30T23:36:39.198Z,62.60
2018-08-30T23:41:30.105Z,62.70
2018-08-30T23:46:21.017Z,62.70
2018-08-30T23:51:11.936Z,62.70
2018-08-30T23:56:02.837Z,63.10
